Time;durP1;ratioP1;P1;durP2;ratioP2;P2;SDS_P1;SDS_P2;PMS_P1;PMS_P2;Temp;Humidity;BMP_temperature;BMP_pressure;BME280_temperature;BME280_humidity;BME280_pressure;Samples;Min_cycle;Max_cycle;Signal;HPM_P1;HPM_P2
2020/12/14 00:01:26;;;;;;;3.83;1.80;;;6.90;71.00;;;;;;2454466;56;21045;-71
2020/12/14 00:03:53;;;;;;;3.25;1.30;;;6.90;70.90;;;;;;2207363;56;20989;-72
2020/12/14 00:06:20;;;;;;;3.80;1.60;;;6.90;70.80;;;;;;2447352;55;20995;-71
2020/12/14 00:08:46;;;;;;;4.70;1.87;;;6.90;70.70;;;;;;2455981;55;25461;-70
2020/12/14 00:11:13;;;;;;;11.25;2.28;;;6.90;70.60;;;;;;2445207;55;20996;-72
2020/12/14 00:13:40;;;;;;;4.90;2.08;;;6.80;70.40;;;;;;2225817;56;21465;-71
2020/12/14 00:16:08;;;;;;;5.00;1.95;;;6.80;70.30;;;;;;2230090;56;21039;-70
2020/12/14 00:18:35;;;;;;;5.93;2.37;;;6.70;70.00;;;;;;2455143;56;20975;-71
2020/12/14 00:21:02;;;;;;;6.22;1.83;;;6.70;69.90;;;;;;2445225;56;21027;-71
2020/12/14 00:23:28;;;;;;;3.92;1.80;;;6.70;69.80;;;;;;2224739;55;21007;-70
2020/12/14 00:25:58;;;;;;;6.70;1.87;;;6.60;69.60;;;;;;2462796;55;21014;-71
2020/12/14 00:28:24;;;;;;;4.55;1.60;;;6.50;69.50;;;;;;2228747;56;21027;-71
2020/12/14 00:30:51;;;;;;;3.75;1.23;;;6.50;69.60;;;;;;2462038;55;20969;-72
2020/12/14 00:33:18;;;;;;;3.20;1.27;;;6.50;69.70;;;;;;2228434;56;21034;-70
2020/12/14 00:35:45;;;;;;;4.00;1.15;;;6.50;69.90;;;;;;2226312;55;21093;-71
2020/12/14 00:38:11;;;;;;;3.25;1.30;;;6.40;70.10;;;;;;2228197;56;21455;-70
2020/12/14 00:40:38;;;;;;;3.40;1.10;;;6.40;70.50;;;;;;2453121;55;21071;-72
2020/12/14 00:43:04;;;;;;;3.15;1.20;;;6.40;70.60;;;;;;2229008;55;21927;-71
2020/12/14 00:45:31;;;;;;;3.00;1.40;;;6.30;70.50;;;;;;2446216;55;21007;-71
2020/12/14 00:47:58;;;;;;;6.40;2.35;;;6.30;70.50;;;;;;2209152;56;20972;-70
2020/12/14 00:50:27;;;;;;;4.95;2.08;;;6.30;70.50;;;;;;2238933;56;20977;-71
2020/12/14 00:52:56;;;;;;;4.70;1.92;;;6.30;70.50;;;;;;2456234;55;21106;-71
2020/12/14 00:55:22;;;;;;;5.12;2.28;;;6.30;70.40;;;;;;2452990;55;21776;-70
2020/12/14 00:57:50;;;;;;;12.07;4.43;;;6.30;70.40;;;;;;2236880;56;21002;-71
2020/12/14 01:00:17;;;;;;;10.07;3.97;;;6.20;70.20;;;;;;2452087;55;21005;-71
2020/12/14 01:02:43;;;;;;;12.43;4.80;;;6.20;70.30;;;;;;2453264;55;20963;-70
2020/12/14 01:05:10;;;;;;;13.70;4.90;;;6.20;70.40;;;;;;2455339;55;21012;-70
2020/12/14 01:07:37;;;;;;;11.68;3.83;;;6.10;70.30;;;;;;2238713;56;20956;-71
2020/12/14 01:10:03;;;;;;;7.72;2.97;;;6.10;70.30;;;;;;2462338;55;21016;-70
2020/12/14 01:12:30;;;;;;;6.22;2.42;;;6.10;70.30;;;;;;2207473;57;20955;-71
2020/12/14 01:14:56;;;;;;;6.15;2.33;;;6.10;70.20;;;;;;2461456;55;20964;-72
2020/12/14 01:17:23;;;;;;;5.03;2.37;;;6.10;70.00;;;;;;2232536;56;20935;-70
2020/12/14 01:19:50;;;;;;;4.72;2.10;;;6.00;69.90;;;;;;2227925;56;21042;-71
2020/12/14 01:22:17;;;;;;;4.60;2.00;;;6.00;69.80;;;;;;2442097;55;21026;-71
2020/12/14 01:24:44;;;;;;;4.05;1.65;;;6.00;69.80;;;;;;2226117;55;20967;-71
2020/12/14 01:27:11;;;;;;;5.37;1.45;;;5.90;69.70;;;;;;2235248;55;21109;-71
2020/12/14 01:29:39;;;;;;;3.85;1.42;;;5.90;69.70;;;;;;2238995;55;20965;-71
2020/12/14 01:32:06;;;;;;;4.62;1.40;;;5.90;69.70;;;;;;2445825;56;21007;-70
2020/12/14 01:34:32;;;;;;;4.37;2.08;;;5.80;69.60;;;;;;2227858;55;21036;-71
2020/12/14 01:36:59;;;;;;;3.95;1.42;;;5.80;69.80;;;;;;2460338;55;20914;-72
2020/12/14 01:39:26;;;;;;;5.00;1.30;;;5.70;69.80;;;;;;2226936;56;21044;-71
2020/12/14 01:41:53;;;;;;;2.58;1.08;;;5.70;69.80;;;;;;2237546;55;20978;-70
2020/12/14 01:44:24;;;;;;;2.72;0.95;;;5.70;70.00;;;;;;2446371;55;21695;-71
2020/12/14 01:46:53;;;;;;;2.47;1.00;;;5.70;70.10;;;;;;2235242;55;21050;-71
2020/12/14 01:49:26;;;;;;;3.15;1.37;;;5.70;70.10;;;;;;2226114;55;21035;-70
2020/12/14 01:51:52;;;;;;;2.20;1.05;;;5.70;70.00;;;;;;2238327;55;21063;-71
2020/12/14 01:54:36;;;;;;;3.17;1.05;;;5.60;69.90;;;;;;2451147;55;21446;-70
2020/12/14 01:57:02;;;;;;;3.92;1.33;;;5.60;69.80;;;;;;2238049;56;21292;-71
2020/12/14 01:59:30;;;;;;;2.10;0.90;;;5.60;70.00;;;;;;2239112;56;20964;-71
2020/12/14 02:01:57;;;;;;;2.62;1.23;;;5.50;70.00;;;;;;2238851;55;21480;-70
2020/12/14 02:04:23;;;;;;;4.20;1.20;;;5.50;70.10;;;;;;2237591;56;21128;-70
2020/12/14 02:06:51;;;;;;;3.03;1.33;;;5.50;70.20;;;;;;2450592;55;20976;-70
2020/12/14 02:09:17;;;;;;;3.33;1.60;;;5.50;70.30;;;;;;2238756;56;20952;-72
2020/12/14 02:11:44;;;;;;;3.05;1.25;;;5.50;70.20;;;;;;2238949;56;21119;-71
2020/12/14 02:14:10;;;;;;;2.97;1.30;;;5.50;70.10;;;;;;2449585;56;20953;-71
2020/12/14 02:16:38;;;;;;;3.40;1.02;;;5.40;70.10;;;;;;2228623;55;21095;-71
2020/12/14 02:19:06;;;;;;;3.15;1.20;;;5.40;70.00;;;;;;2228746;56;21043;-71
2020/12/14 02:21:33;;;;;;;2.62;1.30;;;5.40;70.00;;;;;;2444997;55;20961;-70
2020/12/14 02:24:00;;;;;;;2.78;1.10;;;5.40;70.00;;;;;;2447491;55;20999;-71
2020/12/14 02:26:26;;;;;;;4.20;1.50;;;5.40;70.00;;;;;;2221706;55;21056;-70
2020/12/14 02:28:53;;;;;;;3.28;1.30;;;5.40;70.10;;;;;;2227719;56;20991;-71
2020/12/14 02:31:19;;;;;;;4.57;1.42;;;5.30;70.10;;;;;;2238428;56;21311;-71
2020/12/14 02:33:46;;;;;;;3.10;1.45;;;5.30;70.00;;;;;;2238767;55;20995;-71
2020/12/14 02:36:14;;;;;;;3.37;1.20;;;5.30;70.00;;;;;;2462685;55;20968;-70
2020/12/14 02:38:41;;;;;;;3.12;1.30;;;5.30;69.90;;;;;;2205849;57;20964;-71
2020/12/14 02:41:11;;;;;;;2.85;1.23;;;5.30;69.90;;;;;;2238654;56;20981;-70
2020/12/14 02:43:37;;;;;;;3.40;1.50;;;5.20;69.90;;;;;;2238018;56;20949;-71
2020/12/14 02:46:05;;;;;;;3.87;1.50;;;5.20;69.90;;;;;;2240839;55;21453;-71
2020/12/14 02:48:33;;;;;;;2.45;1.05;;;5.20;69.80;;;;;;2226579;56;20961;-70
2020/12/14 02:51:01;;;;;;;3.53;1.45;;;5.20;69.80;;;;;;2456499;55;21131;-70
2020/12/14 02:53:27;;;;;;;3.10;1.40;;;5.10;69.80;;;;;;2226417;55;21823;-70
2020/12/14 02:55:57;;;;;;;3.42;1.50;;;5.10;69.80;;;;;;2462441;56;21414;-71
2020/12/14 02:58:26;;;;;;;3.17;1.30;;;5.10;69.90;;;;;;2238801;56;21085;-70
2020/12/14 03:00:53;;;;;;;3.42;1.48;;;5.10;69.80;;;;;;2234711;56;21070;-71
2020/12/14 03:03:20;;;;;;;5.78;1.55;;;5.10;69.80;;;;;;2231627;56;21033;-70
2020/12/14 03:05:47;;;;;;;3.12;1.00;;;5.00;69.70;;;;;;2232396;55;21019;-71
2020/12/14 03:08:14;;;;;;;2.50;1.20;;;5.00;69.80;;;;;;2231483;55;21024;-71
2020/12/14 03:10:40;;;;;;;3.33;1.42;;;5.00;69.80;;;;;;2238850;56;21023;-71
2020/12/14 03:13:07;;;;;;;4.28;1.33;;;5.00;69.80;;;;;;2451647;55;20975;-70
2020/12/14 03:15:33;;;;;;;2.95;1.60;;;5.00;69.90;;;;;;2229690;55;21003;-71
2020/12/14 03:18:00;;;;;;;4.32;1.23;;;4.90;69.80;;;;;;2232688;56;21092;-70
2020/12/14 03:20:26;;;;;;;3.10;1.08;;;4.90;70.50;;;;;;2462386;56;20954;-71
2020/12/14 03:22:53;;;;;;;2.65;1.02;;;4.90;69.80;;;;;;2453188;55;21031;-70
2020/12/14 03:25:20;;;;;;;2.85;1.30;;;4.90;69.80;;;;;;2232366;56;21090;-70
2020/12/14 03:27:48;;;;;;;2.70;1.08;;;4.80;69.80;;;;;;2442119;55;21033;-71
2020/12/14 03:30:14;;;;;;;4.10;1.70;;;4.80;69.80;;;;;;2225777;55;21015;-71
2020/12/14 03:32:42;;;;;;;2.78;1.20;;;4.80;69.80;;;;;;2450708;55;20979;-70
2020/12/14 03:35:09;;;;;;;3.55;1.30;;;4.80;69.80;;;;;;2452228;55;21474;-70
2020/12/14 03:37:36;;;;;;;2.62;1.12;;;4.80;69.80;;;;;;2239009;56;20957;-70
2020/12/14 03:40:03;;;;;;;3.15;1.33;;;4.80;69.80;;;;;;2451586;56;21035;-71
2020/12/14 03:42:33;;;;;;;4.20;1.50;;;4.70;69.80;;;;;;2233585;56;20980;-70
2020/12/14 03:45:00;;;;;;;4.32;1.48;;;4.70;69.80;;;;;;2445279;55;21012;-70
2020/12/14 03:47:31;;;;;;;2.42;1.10;;;4.70;69.80;;;;;;2230081;55;20979;-70
2020/12/14 03:49:57;;;;;;;4.03;1.15;;;4.70;69.90;;;;;;2452588;55;21452;-70
2020/12/14 03:52:25;;;;;;;3.90;1.42;;;4.70;69.90;;;;;;2228873;55;20986;-70
2020/12/14 03:54:52;;;;;;;3.80;1.50;;;4.60;69.70;;;;;;2449537;55;21436;-70
2020/12/14 03:57:19;;;;;;;3.28;1.40;;;4.60;69.70;;;;;;2451210;56;20980;-70
2020/12/14 03:59:46;;;;;;;2.50;1.20;;;4.50;69.70;;;;;;2224732;55;21467;-70
2020/12/14 04:02:14;;;;;;;2.97;1.58;;;4.60;69.80;;;;;;2461856;55;21089;-71
2020/12/14 04:04:40;;;;;;;3.20;1.23;;;4.60;69.90;;;;;;2443289;55;21630;-71
2020/12/14 04:07:07;;;;;;;4.57;1.23;;;4.60;69.90;;;;;;2226718;55;21027;-71
2020/12/14 04:09:34;;;;;;;3.17;1.40;;;4.50;69.90;;;;;;2238883;56;20984;-70
2020/12/14 04:12:01;;;;;;;2.47;1.08;;;4.50;69.90;;;;;;2462548;56;21466;-70
2020/12/14 04:14:27;;;;;;;2.70;0.98;;;4.50;70.00;;;;;;2237564;56;20975;-69
2020/12/14 04:16:54;;;;;;;2.85;1.08;;;4.50;70.10;;;;;;2449802;55;20964;-71
2020/12/14 04:19:23;;;;;;;2.00;0.90;;;4.50;70.20;;;;;;2243689;56;21831;-71
2020/12/14 04:21:51;;;;;;;3.75;1.10;;;4.50;70.20;;;;;;2425806;55;21427;-71
2020/12/14 04:24:18;;;;;;;2.92;1.05;;;4.50;70.30;;;;;;2453363;56;21473;-71
2020/12/14 04:26:44;;;;;;;2.40;1.10;;;4.50;70.30;;;;;;2462647;55;20992;-70
2020/12/14 04:29:11;;;;;;;2.17;0.90;;;4.50;70.30;;;;;;2237570;56;21047;-70
2020/12/14 04:31:37;;;;;;;2.95;1.10;;;4.50;70.30;;;;;;2450471;56;21037;-71
2020/12/14 04:34:04;;;;;;;2.25;0.90;;;4.50;70.30;;;;;;2441130;55;20991;-70
2020/12/14 04:36:31;;;;;;;2.60;0.95;;;4.50;70.30;;;;;;2454626;55;21061;-71
2020/12/14 04:38:58;;;;;;;1.90;0.90;;;4.50;70.30;;;;;;2227449;56;21476;-71
2020/12/14 04:41:25;;;;;;;3.05;1.30;;;4.50;70.30;;;;;;2450595;56;21022;-70
2020/12/14 04:43:51;;;;;;;2.75;1.10;;;4.40;70.10;;;;;;2233472;56;21130;-70
2020/12/14 04:46:21;;;;;;;2.87;1.10;;;4.40;70.10;;;;;;2227941;55;20983;-70
2020/12/14 04:48:56;;;;;;;2.12;1.05;;;4.40;70.10;;;;;;2419251;55;20985;-71
2020/12/14 04:51:23;;;;;;;2.20;1.00;;;4.40;70.10;;;;;;2207849;57;21004;-69
2020/12/14 04:53:50;;;;;;;2.72;1.10;;;4.40;70.20;;;;;;2240473;55;21654;-70
2020/12/14 04:56:19;;;;;;;2.37;1.10;;;4.40;70.30;;;;;;2440193;55;20982;-71
2020/12/14 04:58:46;;;;;;;2.37;1.05;;;4.40;70.30;;;;;;2230565;55;21365;-71
2020/12/14 05:01:12;;;;;;;3.08;1.40;;;4.40;70.30;;;;;;2450437;55;20992;-70
2020/12/14 05:03:39;;;;;;;2.92;1.40;;;4.40;70.30;;;;;;2444370;56;21071;-70
2020/12/14 05:06:05;;;;;;;3.62;1.70;;;4.40;70.30;;;;;;2225958;55;21006;-71
2020/12/14 05:08:32;;;;;;;4.45;1.50;;;4.40;70.50;;;;;;2229077;55;21095;-70
2020/12/14 05:11:02;;;;;;;2.62;1.30;;;4.40;70.40;;;;;;2443109;55;20987;-70
2020/12/14 05:13:29;;;;;;;4.35;1.40;;;4.30;70.30;;;;;;2225972;55;21025;-70
2020/12/14 05:15:55;;;;;;;2.95;1.37;;;4.30;70.30;;;;;;2239796;56;20968;-70
2020/12/14 05:18:23;;;;;;;2.53;1.33;;;4.30;70.20;;;;;;2239649;56;21774;-71
2020/12/14 05:21:00;;;;;;;3.92;1.27;;;4.30;70.20;;;;;;2447710;55;20989;-70
2020/12/14 05:23:27;;;;;;;3.15;1.30;;;4.30;70.10;;;;;;2237227;55;21026;-71
2020/12/14 05:26:07;;;;;;;3.80;1.60;;;4.30;70.10;;;;;;2437253;55;21015;-71
2020/12/14 05:28:35;;;;;;;3.00;1.20;;;4.30;69.90;;;;;;2454996;56;20964;-70
2020/12/14 05:31:01;;;;;;;2.92;1.27;;;4.30;69.90;;;;;;2444896;56;21029;-70
2020/12/14 05:33:29;;;;;;;4.95;1.62;;;4.30;69.90;;;;;;2232437;56;21023;-70
2020/12/14 05:35:56;;;;;;;2.62;1.27;;;4.20;69.80;;;;;;2226210;55;20963;-71
2020/12/14 05:38:30;;;;;;;2.92;1.40;;;4.20;69.80;;;;;;2232376;55;21003;-70
2020/12/14 05:40:57;;;;;;;5.22;1.85;;;4.20;69.80;;;;;;2453067;55;20984;-70
2020/12/14 05:43:25;;;;;;;3.80;1.90;;;4.20;69.80;;;;;;2239804;56;21021;-71
2020/12/14 05:45:52;;;;;;;4.97;2.20;;;4.20;69.90;;;;;;2446016;55;21633;-71
2020/12/14 05:48:23;;;;;;;3.30;1.33;;;4.20;69.90;;;;;;2444618;55;21645;-70
2020/12/14 05:50:51;;;;;;;3.47;1.55;;;4.20;69.90;;;;;;2442722;55;20994;-70
2020/12/14 05:53:20;;;;;;;2.95;1.27;;;4.10;69.90;;;;;;2228304;56;21012;-70
2020/12/14 05:55:47;;;;;;;5.28;1.35;;;4.10;69.90;;;;;;2455510;55;21064;-70
2020/12/14 05:58:15;;;;;;;2.87;1.37;;;4.10;69.90;;;;;;2452257;55;21063;-69
2020/12/14 06:00:45;;;;;;;2.95;1.25;;;4.10;69.90;;;;;;2454469;55;20949;-70
2020/12/14 06:03:13;;;;;;;3.33;1.52;;;4.10;69.90;;;;;;2462098;55;21040;-70
2020/12/14 06:05:42;;;;;;;3.50;1.67;;;4.10;69.90;;;;;;2445556;56;21380;-70
2020/12/14 06:08:35;;;;;;;3.75;1.75;;;4.10;69.90;;;;;;2238941;56;20964;-70
2020/12/14 06:11:03;;;;;;;;;;;4.10;69.90;;;;;;2462248;55;21074;-70
2020/12/14 06:13:31;;;;;;;4.10;1.48;;;4.10;69.60;;;;;;2226868;56;20687;-70
2020/12/14 06:16:00;;;;;;;3.80;1.45;;;4.00;69.70;;;;;;2238115;56;21020;-71
2020/12/14 06:18:32;;;;;;;3.60;1.70;;;4.00;69.70;;;;;;2447249;55;21039;-70
2020/12/14 06:20:59;;;;;;;5.40;2.40;;;4.00;69.70;;;;;;2238941;56;21049;-71
2020/12/14 06:23:27;;;;;;;5.57;2.30;;;4.00;69.70;;;;;;2226041;55;20969;-71
2020/12/14 06:25:53;;;;;;;6.18;2.30;;;4.00;69.80;;;;;;2462580;55;21413;-71
2020/12/14 06:28:30;;;;;;;4.57;1.75;;;4.00;69.80;;;;;;2462474;55;20961;-71
2020/12/14 06:30:57;;;;;;;5.75;2.10;;;4.00;69.90;;;;;;2238409;56;21008;-71
2020/12/14 06:35:23;;;;;;;5.97;2.25;;;3.90;69.90;;;;;;2461751;56;21028;-71
2020/12/14 06:37:53;;;;;;;9.38;4.57;;;3.90;69.70;;;;;;2238755;56;21016;-71
2020/12/14 06:40:20;;;;;;;9.85;3.70;;;3.90;69.80;;;;;;2462443;55;20965;-72
2020/12/14 06:42:47;;;;;;;18.90;6.82;;;3.90;69.90;;;;;;2238988;56;20961;-71
2020/12/14 06:45:15;;;;;;;21.15;8.10;;;3.90;69.90;;;;;;2463049;55;21699;-71
2020/12/14 06:47:46;;;;;;;25.33;8.50;;;3.90;69.90;;;;;;2232563;56;20987;-71
2020/12/14 06:51:16;;;;;;;19.27;6.90;;;3.90;70.00;;;;;;2420610;56;21001;-71
2020/12/14 06:53:52;;;;;;;9.23;4.40;;;3.80;69.70;;;;;;2418333;56;21805;-71
2020/12/14 06:57:32;;;;;;;10.60;4.47;;;3.80;69.90;;;;;;2225422;55;21022;-70
2020/12/14 06:59:59;;;;;;;7.62;3.35;;;3.80;69.80;;;;;;2239255;56;24651;-71
2020/12/14 07:02:37;;;;;;;11.10;4.47;;;3.80;70.00;;;;;;2234525;55;20975;-70
2020/12/14 07:05:04;;;;;;;14.15;5.20;;;3.80;69.90;;;;;;2235251;56;21048;-70
2020/12/14 07:07:31;;;;;;;12.95;5.72;;;3.80;69.90;;;;;;2462539;55;20960;-71
2020/12/14 07:16:01;;;;;;;13.82;5.85;;;3.80;70.00;;;;;;2461865;55;20971;-70
2020/12/14 07:18:27;;;;;;;14.73;5.97;;;3.80;69.60;;;;;;2452659;55;21023;-71
2020/12/14 07:21:03;;;;;;;12.43;5.35;;;3.80;70.10;;;;;;2456438;55;21798;-71
2020/12/14 07:23:29;;;;;;;12.85;5.80;;;3.80;70.20;;;;;;2227987;55;20971;-69
2020/12/14 07:25:56;;;;;;;11.18;4.93;;;3.80;70.40;;;;;;2239135;56;21028;-70
2020/12/14 07:28:38;;;;;;;12.37;6.03;;;3.80;70.50;;;;;;2237593;56;20990;-70
2020/12/14 07:31:06;;;;;;;12.35;5.40;;;3.80;70.60;;;;;;2443748;55;21126;-70
2020/12/14 07:33:34;;;;;;;10.73;5.20;;;3.80;70.70;;;;;;2443975;55;20966;-71
2020/12/14 07:36:04;;;;;;;9.93;3.97;;;3.80;70.70;;;;;;2226905;55;21055;-71
2020/12/14 07:38:31;;;;;;;11.48;4.82;;;3.80;70.80;;;;;;2234253;56;21022;-71
2020/12/14 07:41:07;;;;;;;13.18;5.80;;;3.80;70.80;;;;;;2233124;55;21048;-71
2020/12/14 07:43:43;;;;;;;9.32;5.05;;;3.90;71.00;;;;;;2241540;56;20949;-73
2020/12/14 07:46:26;;;;;;;10.25;4.90;;;3.90;71.10;;;;;;2443394;55;20952;-72
2020/12/14 07:48:54;;;;;;;10.70;5.22;;;3.90;71.20;;;;;;2444552;56;21777;-72
2020/12/14 07:51:21;;;;;;;11.27;5.80;;;3.90;71.20;;;;;;2230030;56;20948;-70
2020/12/14 07:53:50;;;;;;;11.57;5.82;;;3.90;71.20;;;;;;2462687;55;21018;-72
2020/12/14 07:56:17;;;;;;;11.63;5.22;;;4.00;71.30;;;;;;2462912;55;20945;-70
2020/12/14 07:58:47;;;;;;;10.00;4.85;;;4.00;71.40;;;;;;2456421;55;20994;-69
2020/12/14 08:01:20;;;;;;;11.60;6.32;;;4.00;71.60;;;;;;2443604;55;21023;-70
2020/12/14 08:03:46;;;;;;;12.85;6.03;;;4.00;71.70;;;;;;2418121;56;20978;-71
2020/12/14 08:06:18;;;;;;;9.65;4.93;;;4.10;72.10;;;;;;2230632;55;21020;-70
2020/12/14 08:08:50;;;;;;;7.70;4.18;;;4.10;72.30;;;;;;2446727;56;20935;-71
2020/12/14 08:11:18;;;;;;;7.03;3.87;;;4.20;72.60;;;;;;2206970;57;20985;-71
2020/12/14 08:13:46;;;;;;;6.47;3.40;;;4.30;73.00;;;;;;2462853;56;20960;-70
2020/12/14 08:16:16;;;;;;;8.35;4.47;;;4.30;73.30;;;;;;2462907;55;20956;-71
2020/12/14 08:18:49;;;;;;;10.68;5.55;;;4.40;73.70;;;;;;2462487;55;21106;-71
2020/12/14 08:21:22;;;;;;;13.60;8.20;;;4.50;74.00;;;;;;2462540;55;20953;-72
2020/12/14 08:23:49;;;;;;;14.87;8.05;;;4.60;74.20;;;;;;2417258;56;20951;-71
2020/12/14 08:26:20;;;;;;;15.38;9.32;;;4.70;74.50;;;;;;2229651;56;20967;-71
2020/12/14 08:28:46;;;;;;;14.77;8.82;;;4.80;74.70;;;;;;2446073;56;20987;-72
2020/12/14 08:31:13;;;;;;;15.45;9.73;;;4.90;74.90;;;;;;2234505;56;21044;-71
2020/12/14 08:33:55;;;;;;;14.20;9.13;;;5.00;75.10;;;;;;2232850;56;21035;-71
2020/12/14 08:36:23;;;;;;;9.05;5.75;;;5.20;75.20;;;;;;2451420;55;21109;-72
2020/12/14 08:38:50;;;;;;;9.98;5.60;;;5.30;75.20;;;;;;2421496;56;20961;-70
2020/12/14 08:41:23;;;;;;;7.32;4.25;;;5.40;75.20;;;;;;2227997;56;21080;-71
2020/12/14 08:43:53;;;;;;;6.75;4.10;;;5.50;75.10;;;;;;2455897;55;21019;-72
2020/12/14 08:46:20;;;;;;;7.28;4.12;;;5.60;75.10;;;;;;2227774;55;20929;-71
2020/12/14 08:49:05;;;;;;;8.45;4.50;;;5.70;75.10;;;;;;2445936;56;20960;-71
2020/12/14 08:51:32;;;;;;;7.03;4.20;;;5.80;75.00;;;;;;2462272;55;21825;-71
2020/12/14 08:54:12;;;;;;;7.20;4.30;;;5.90;75.30;;;;;;2461844;55;21508;-72
2020/12/14 08:56:39;;;;;;;7.12;4.00;;;6.00;75.40;;;;;;2462664;55;20984;-72
2020/12/14 08:59:14;;;;;;;12.63;6.60;;;6.10;75.60;;;;;;2458508;55;21068;-71
2020/12/14 09:01:53;;;;;;;10.13;5.65;;;6.20;75.80;;;;;;2229777;56;20957;-71
2020/12/14 09:04:35;;;;;;;8.10;4.82;;;6.30;76.00;;;;;;2463292;55;20965;-72
2020/12/14 09:07:01;;;;;;;7.97;4.43;;;6.40;76.00;;;;;;2459380;55;20983;-72
2020/12/14 09:10:31;;;;;;;6.85;3.50;;;6.50;76.20;;;;;;2442762;55;21051;-72
2020/12/14 09:13:05;;;;;;;7.12;4.25;;;6.60;76.40;;;;;;2458747;55;21398;-71
2020/12/14 09:15:34;;;;;;;7.25;4.72;;;6.80;76.40;;;;;;2462981;56;21430;-71
2020/12/14 09:18:07;;;;;;;6.70;3.40;;;6.90;76.70;;;;;;2462269;55;21462;-71
2020/12/14 09:20:34;;;;;;;4.25;2.47;;;7.10;76.70;;;;;;2463043;55;21060;-72
2020/12/14 09:23:00;;;;;;;4.32;1.95;;;7.20;76.60;;;;;;2462018;56;20949;-71
2020/12/14 09:25:29;;;;;;;3.87;1.75;;;7.30;76.40;;;;;;2232080;56;21119;-73
2020/12/14 09:27:57;;;;;;;3.30;1.67;;;7.30;76.20;;;;;;2237944;55;21046;-72
2020/12/14 09:30:23;;;;;;;3.60;1.85;;;7.40;76.10;;;;;;2224612;55;21115;-72
2020/12/14 09:32:50;;;;;;;3.25;1.62;;;7.50;76.20;;;;;;2232422;55;21056;-72
2020/12/14 09:35:16;;;;;;;4.12;2.25;;;7.70;76.40;;;;;;2228591;55;20990;-72
2020/12/14 09:37:43;;;;;;;4.18;2.50;;;7.70;76.30;;;;;;2234669;55;21495;-72
2020/12/14 09:40:11;;;;;;;5.32;2.70;;;7.90;76.40;;;;;;2446448;55;21054;-72
2020/12/14 09:42:37;;;;;;;4.18;2.55;;;7.90;76.20;;;;;;2232850;56;20993;-72
2020/12/14 09:45:05;;;;;;;4.75;3.10;;;8.00;76.30;;;;;;2441840;55;20985;-72
2020/12/14 09:47:33;;;;;;;4.25;2.60;;;8.10;76.30;;;;;;2443381;55;20959;-72
2020/12/14 09:49:59;;;;;;;3.83;2.20;;;8.20;76.30;;;;;;2224541;55;21897;-72
2020/12/14 09:52:26;;;;;;;3.72;2.12;;;8.30;76.30;;;;;;2236384;56;20967;-72
2020/12/14 09:54:52;;;;;;;3.42;1.73;;;8.40;76.30;;;;;;2444458;55;20997;-72
2020/12/14 09:57:19;;;;;;;2.87;1.52;;;8.50;76.30;;;;;;2443562;55;21003;-72
2020/12/14 09:59:46;;;;;;;3.53;1.50;;;8.60;76.30;;;;;;2444448;55;20959;-72
2020/12/14 10:02:12;;;;;;;5.37;2.03;;;8.70;76.10;;;;;;2239257;56;21089;-72
2020/12/14 10:04:40;;;;;;;3.58;2.00;;;8.70;75.90;;;;;;2461325;55;20988;-72
2020/12/14 10:07:07;;;;;;;4.30;2.58;;;8.80;75.90;;;;;;2231470;55;20932;-73
2020/12/14 10:09:33;;;;;;;4.97;2.30;;;8.90;75.80;;;;;;2235713;55;21036;-71
2020/12/14 10:12:00;;;;;;;3.85;2.20;;;8.80;75.60;;;;;;2240398;55;21479;-72
2020/12/14 10:14:26;;;;;;;3.70;2.12;;;9.10;75.80;;;;;;2443784;55;21394;-72
2020/12/14 10:16:53;;;;;;;3.90;2.12;;;9.10;75.80;;;;;;2228968;55;20971;-72
2020/12/14 10:19:19;;;;;;;3.87;2.10;;;9.20;75.90;;;;;;2237216;55;21774;-72
2020/12/14 10:21:46;;;;;;;5.78;1.90;;;9.30;75.90;;;;;;2462335;55;20964;-72
2020/12/14 10:24:15;;;;;;;3.15;1.70;;;9.30;76.60;;;;;;2453762;55;21050;-73
2020/12/14 10:26:42;;;;;;;3.40;1.75;;;9.40;75.90;;;;;;2451007;55;21037;-72
2020/12/14 10:29:08;;;;;;;4.95;2.00;;;9.50;76.00;;;;;;2462181;55;20964;-72
2020/12/14 10:31:35;;;;;;;4.00;1.77;;;9.60;75.90;;;;;;2239030;56;20968;-72
2020/12/14 10:34:01;;;;;;;3.92;1.90;;;9.60;75.90;;;;;;2462689;55;21052;-72
2020/12/14 10:36:29;;;;;;;4.82;2.28;;;9.70;75.90;;;;;;2462439;55;21954;-73
2020/12/14 10:38:56;;;;;;;4.93;2.65;;;9.80;75.70;;;;;;2445718;55;20992;-72
2020/12/14 10:41:23;;;;;;;4.82;2.53;;;9.80;75.40;;;;;;2239173;56;20936;-72
2020/12/14 10:43:50;;;;;;;4.28;2.33;;;9.90;75.10;;;;;;2227096;56;20987;-72
2020/12/14 10:46:17;;;;;;;4.12;2.05;;;10.00;73.80;;;;;;2238362;55;21123;-72
2020/12/14 10:48:44;;;;;;;3.83;2.17;;;10.00;73.60;;;;;;2450529;55;21033;-73
2020/12/14 10:51:13;;;;;;;4.10;2.20;;;10.10;73.70;;;;;;2231786;56;21050;-72
2020/12/14 10:53:40;;;;;;;3.70;2.20;;;10.10;74.00;;;;;;2458771;55;20960;-73
2020/12/14 10:56:08;;;;;;;5.40;2.50;;;10.20;75.40;;;;;;2461943;55;20945;-72
2020/12/14 10:58:35;;;;;;;6.70;3.00;;;10.40;76.90;;;;;;2462485;55;21600;-72
2020/12/14 11:01:01;;;;;;;5.75;2.85;;;10.60;78.40;;;;;;2450399;56;20998;-72
2020/12/14 11:03:31;;;;;;;3.78;2.33;;;10.80;79.10;;;;;;2457769;55;20963;-73
2020/12/14 11:05:58;;;;;;;4.35;2.67;;;11.10;79.30;;;;;;2238858;56;21052;-73
2020/12/14 11:08:28;;;;;;;3.83;2.35;;;11.40;79.90;;;;;;2227579;56;20990;-73
2020/12/14 11:10:57;;;;;;;5.03;2.00;;;11.70;80.70;;;;;;2241645;55;20969;-73
2020/12/14 11:13:24;;;;;;;4.15;2.12;;;12.00;80.90;;;;;;2226408;56;21023;-72
2020/12/14 11:15:51;;;;;;;4.25;2.40;;;12.30;80.20;;;;;;2237358;56;21050;-72
2020/12/14 11:18:18;;;;;;;4.00;1.85;;;12.50;79.20;;;;;;2444409;55;20959;-73
2020/12/14 11:20:45;;;;;;;4.32;2.00;;;12.70;78.90;;;;;;2225332;55;20950;-73
2020/12/14 11:23:12;;;;;;;4.37;1.65;;;12.90;78.60;;;;;;2228835;55;20978;-73
2020/12/14 11:25:38;;;;;;;3.50;1.70;;;13.10;77.70;;;;;;2234949;56;20953;-73
2020/12/14 11:28:06;;;;;;;3.35;1.70;;;13.30;76.80;;;;;;2462413;55;21016;-72
2020/12/14 11:30:32;;;;;;;3.33;1.90;;;13.40;75.80;;;;;;2460742;55;21481;-73
2020/12/14 11:32:59;;;;;;;3.37;1.67;;;13.50;74.90;;;;;;2226073;55;21557;-73
2020/12/14 11:35:26;;;;;;;4.53;1.92;;;13.50;73.60;;;;;;2462482;55;20955;-73
2020/12/14 11:37:52;;;;;;;4.80;1.67;;;13.50;72.40;;;;;;2462808;55;20964;-72
2020/12/14 11:40:19;;;;;;;2.80;1.48;;;13.40;71.90;;;;;;2238846;56;21060;-73
2020/12/14 11:42:45;;;;;;;5.03;2.10;;;13.40;71.60;;;;;;2449912;55;20963;-73
2020/12/14 11:45:12;;;;;;;3.45;1.70;;;13.30;71.20;;;;;;2235641;56;21103;-73
2020/12/14 11:47:39;;;;;;;3.70;1.75;;;13.20;71.30;;;;;;2446910;55;20972;-73
2020/12/14 11:50:06;;;;;;;3.17;1.80;;;13.10;71.40;;;;;;2233147;56;21037;-73
2020/12/14 11:52:34;;;;;;;4.57;2.00;;;13.10;71.60;;;;;;2442941;55;21047;-72
2020/12/14 11:55:00;;;;;;;4.93;1.50;;;13.10;71.50;;;;;;2446817;56;20952;-72
2020/12/14 11:57:27;;;;;;;4.05;2.00;;;12.90;71.20;;;;;;2462272;55;21540;-73
2020/12/14 11:59:55;;;;;;;4.55;2.20;;;13.00;71.50;;;;;;2235271;56;20983;-72
2020/12/14 12:02:21;;;;;;;13.73;8.50;;;13.00;71.80;;;;;;2232536;56;20958;-72
2020/12/14 12:04:49;;;;;;;6.82;4.60;;;12.90;72.00;;;;;;2239253;56;21719;-72
2020/12/14 12:07:15;;;;;;;4.15;3.05;;;13.00;72.20;;;;;;2462508;55;21505;-73
2020/12/14 12:09:42;;;;;;;5.20;3.33;;;13.00;72.20;;;;;;2239101;56;20977;-73
2020/12/14 12:12:09;;;;;;;4.47;2.70;;;13.00;72.20;;;;;;2233028;56;20979;-73
2020/12/14 12:14:37;;;;;;;3.90;2.37;;;13.00;72.20;;;;;;2456964;55;21004;-72
2020/12/14 12:17:04;;;;;;;3.75;1.87;;;13.00;72.10;;;;;;2230878;55;20987;-73
2020/12/14 12:19:31;;;;;;;4.03;2.30;;;13.10;72.10;;;;;;2446427;56;21031;-72
2020/12/14 12:21:59;;;;;;;6.40;2.28;;;13.10;71.90;;;;;;2236660;56;21000;-73
2020/12/14 12:24:27;;;;;;;3.92;1.87;;;13.10;71.80;;;;;;2463061;55;21075;-73
2020/12/14 12:26:54;;;;;;;3.62;1.83;;;13.10;72.00;;;;;;2237386;56;21012;-73
2020/12/14 12:29:20;;;;;;;3.55;1.60;;;13.10;72.20;;;;;;2461588;55;21720;-72
2020/12/14 12:31:51;;;;;;;2.87;1.62;;;13.10;72.10;;;;;;2455227;55;20943;-73
2020/12/14 12:34:27;;;;;;;3.47;1.70;;;13.10;71.80;;;;;;2232229;55;20969;-73
2020/12/14 12:36:54;;;;;;;5.43;2.20;;;13.20;72.30;;;;;;2444219;56;20975;-72
2020/12/14 12:39:22;;;;;;;4.18;2.10;;;13.20;72.80;;;;;;2239496;55;21047;-73
2020/12/14 12:41:50;;;;;;;6.35;2.70;;;13.30;73.30;;;;;;2449361;55;22505;-72
2020/12/14 12:44:16;;;;;;;4.35;2.08;;;13.30;72.90;;;;;;2461834;55;21682;-73
2020/12/14 12:46:43;;;;;;;4.43;2.25;;;13.40;72.90;;;;;;2240502;56;20934;-72
2020/12/14 12:49:10;;;;;;;3.83;2.15;;;13.40;72.80;;;;;;2441765;55;21020;-73
2020/12/14 12:51:36;;;;;;;4.55;2.47;;;13.50;72.80;;;;;;2446173;55;21038;-73
2020/12/14 12:54:03;;;;;;;5.47;2.20;;;13.60;72.70;;;;;;2229358;56;21048;-72
2020/12/14 12:56:30;;;;;;;3.67;2.12;;;13.60;72.40;;;;;;2462630;55;21024;-72
2020/12/14 12:58:57;;;;;;;4.57;2.35;;;13.70;72.60;;;;;;2239066;56;20945;-72
2020/12/14 13:01:25;;;;;;;4.78;2.40;;;13.70;72.10;;;;;;2238266;56;20965;-72
2020/12/14 13:03:52;;;;;;;4.85;2.30;;;13.70;71.70;;;;;;2462656;55;20944;-73
2020/12/14 13:06:19;;;;;;;3.85;2.35;;;13.70;71.40;;;;;;2240079;56;21007;-73
2020/12/14 13:08:46;;;;;;;5.97;3.15;;;13.80;71.10;;;;;;2228543;56;21019;-72